Terminal Aerodrome Forecast
Issued by NWS

Home | Current Version | Previous Version | Text Only | Print | Product List | Glossary On
Versions: 1 2 3 4 5 6 7 8 9 10 11 12 13 14 15 16 17
000
FTAK31 PAJN 232340
TAFAWG
TAF
PAWG 232340Z 2400/2424 21005KT P6SM OVC060
     FM241000 VRB03KT P6SM BCFG SCT005 OVC040
     FM241800 28007KT P6SM OVC050
      AMD LTD TO CLD VIS AND WIND 2406/2415=

USA.gov is the U.S. government's official web portal to all federal, state and local government web resources and services.